Baltimore, Maryland
Traffic Map
Current Weather Conditions
Baltimore, Maryland
Broken Clouds
Broken Clouds
68°
Feels Like: 68°
Wind Chill: 68° Ceiling: 25000
Heat Index: 68° Visibility: 10mi
Dew Point: 65° Wind: 6mph
Humidity: 90% Direction: 50° (NE)
Pressure: 30in Gusts: 0mph
Raw Report DataKBWI 261054Z 05005KT 10SM FEW040 BKN250 20/18 A3000 RMK AO2 SLP158 T02000183 $
Traffic Incident Summary
Active as of:
Severity:
Category:
InformationThere was an issue retrieving the traffic information for this location. Please try a different location or try again shortly.
Advertisements